Time;durP1;ratioP1;P1;durP2;ratioP2;P2;SDS_P1;SDS_P2;PMS_P1;PMS_P2;Temp;Humidity;BMP_temperature;BMP_pressure;BME280_temperature;BME280_humidity;BME280_pressure;Samples;Min_cycle;Max_cycle;Signal;HPM_P1;HPM_P2
2023/06/05 00:01:15;;;;;;;167.77;58.15;;;;;;;;;;5015096;28;20034;-41
2023/06/05 00:03:43;;;;;;;190.80;63.33;;;;;;;;;;5015109;28;20033;-42
2023/06/05 00:06:10;;;;;;;203.60;69.15;;;;;;;;;;5014814;28;20037;-41
2023/06/05 00:08:37;;;;;;;232.18;68.05;;;;;;;;;;5015200;28;20026;-42
2023/06/05 00:11:04;;;;;;;179.18;63.78;;;;;;;;;;5014580;28;20754;-41
2023/06/05 00:13:31;;;;;;;188.07;62.42;;;;;;;;;;5015191;28;20391;-44
2023/06/05 00:15:58;;;;;;;171.48;62.33;;;;;;;;;;5014983;28;20025;-41
2023/06/05 00:18:26;;;;;;;169.98;61.72;;;;;;;;;;5015119;28;20423;-41
2023/06/05 00:20:53;;;;;;;180.75;61.47;;;;;;;;;;5014813;28;20081;-46
2023/06/05 00:23:20;;;;;;;183.43;62.25;;;;;;;;;;5015101;28;20034;-41
2023/06/05 00:25:47;;;;;;;174.25;60.47;;;;;;;;;;5014248;28;20038;-41
2023/06/05 00:28:14;;;;;;;173.07;59.95;;;;;;;;;;5014693;28;20029;-40
2023/06/05 00:30:41;;;;;;;150.82;56.70;;;;;;;;;;5013756;28;20037;-40
2023/06/05 00:33:08;;;;;;;162.05;55.85;;;;;;;;;;5014324;28;20415;-42
2023/06/05 00:35:35;;;;;;;154.98;54.65;;;;;;;;;;5014332;28;20030;-42
2023/06/05 00:38:02;;;;;;;147.23;55.05;;;;;;;;;;5014480;28;20113;-42
2023/06/05 00:40:29;;;;;;;160.35;55.28;;;;;;;;;;5014472;28;20038;-43
2023/06/05 00:42:56;;;;;;;152.15;55.70;;;;;;;;;;5014091;28;20030;-42
2023/06/05 00:45:23;;;;;;;152.23;51.42;;;;;;;;;;5014459;28;20030;-45
2023/06/05 00:47:50;;;;;;;140.98;51.60;;;;;;;;;;5014502;28;20111;-43
2023/06/05 00:50:17;;;;;;;137.07;52.00;;;;;;;;;;5014444;28;20026;-43
2023/06/05 00:52:45;;;;;;;142.20;51.97;;;;;;;;;;5014239;28;20030;-44
2023/06/05 00:55:13;;;;;;;150.63;51.05;;;;;;;;;;4984055;28;20037;-43
2023/06/05 00:57:40;;;;;;;131.68;48.67;;;;;;;;;;5008913;28;20052;-43
2023/06/05 01:00:12;;;;;;;123.82;47.45;;;;;;;;;;5014219;28;20042;-42
2023/06/05 01:02:39;;;;;;;127.90;48.85;;;;;;;;;;4996441;28;20049;-45
2023/06/05 01:05:07;;;;;;;134.98;49.80;;;;;;;;;;5006448;28;20136;-43
2023/06/05 01:07:34;;;;;;;138.02;47.90;;;;;;;;;;5013898;28;20065;-47
2023/06/05 01:10:05;;;;;;;150.57;50.10;;;;;;;;;;4996737;28;20039;-47
2023/06/05 01:12:42;;;;;;;137.65;49.17;;;;;;;;;;5007187;28;20137;-41
2023/06/05 01:15:09;;;;;;;123.53;46.97;;;;;;;;;;4996314;28;20046;-42
2023/06/05 01:17:36;;;;;;;126.50;46.08;;;;;;;;;;5010938;28;20389;-42
2023/06/05 01:20:06;;;;;;;111.53;44.00;;;;;;;;;;5005564;28;20060;-42
2023/06/05 01:22:34;;;;;;;108.03;43.97;;;;;;;;;;5009665;28;20030;-42
2023/06/05 01:25:01;;;;;;;109.70;44.08;;;;;;;;;;5012474;28;20030;-42
2023/06/05 01:27:28;;;;;;;124.22;45.28;;;;;;;;;;5012483;28;20033;-49
2023/06/05 01:30:14;;;;;;;110.10;43.58;;;;;;;;;;5012369;28;20116;-42
2023/06/05 01:32:44;;;;;;;111.18;42.90;;;;;;;;;;5009820;28;20092;-43
2023/06/05 01:35:16;;;;;;;123.78;44.60;;;;;;;;;;5012150;28;20464;-43
2023/06/05 01:37:48;;;;;;;103.50;42.55;;;;;;;;;;5012004;28;20071;-43
2023/06/05 01:40:16;;;;;;;96.70;40.90;;;;;;;;;;5012508;28;20120;-43
2023/06/05 01:42:44;;;;;;;110.90;42.17;;;;;;;;;;5012187;28;20487;-42
2023/06/05 01:45:12;;;;;;;106.80;42.70;;;;;;;;;;5012291;28;20728;-42
2023/06/05 01:47:40;;;;;;;99.68;41.88;;;;;;;;;;5009285;28;20427;-43
2023/06/05 01:50:08;;;;;;;102.10;41.53;;;;;;;;;;5011982;28;20369;-44
2023/06/05 01:52:39;;;;;;;88.65;38.50;;;;;;;;;;5012205;28;20480;-43
2023/06/05 01:55:07;;;;;;;88.63;40.20;;;;;;;;;;5012653;28;20036;-43
2023/06/05 01:57:34;;;;;;;99.43;37.63;;;;;;;;;;5012752;28;20021;-43
2023/06/05 02:00:02;;;;;;;91.47;40.22;;;;;;;;;;5012770;28;20030;-44
2023/06/05 02:02:30;;;;;;;88.68;39.03;;;;;;;;;;5012869;28;20391;-44
2023/06/05 02:04:59;;;;;;;95.30;39.55;;;;;;;;;;5009943;28;20033;-43
2023/06/05 02:07:26;;;;;;;85.70;39.00;;;;;;;;;;4994875;28;20627;-45
2023/06/05 02:09:53;;;;;;;89.75;39.17;;;;;;;;;;5012514;28;20029;-43
2023/06/05 02:12:26;;;;;;;83.90;37.13;;;;;;;;;;5012495;28;20108;-42
2023/06/05 02:14:53;;;;;;;80.28;36.85;;;;;;;;;;5012225;28;20038;-44
2023/06/05 02:17:20;;;;;;;80.43;37.63;;;;;;;;;;5012417;28;20707;-45
2023/06/05 02:19:48;;;;;;;75.72;38.13;;;;;;;;;;5012354;28;20033;-43
2023/06/05 02:22:15;;;;;;;72.88;35.03;;;;;;;;;;5011346;28;20029;-45
2023/06/05 02:24:43;;;;;;;84.65;37.42;;;;;;;;;;5008674;28;20389;-42
2023/06/05 02:27:10;;;;;;;84.63;36.83;;;;;;;;;;5009100;28;20030;-43
2023/06/05 02:29:41;;;;;;;87.13;37.13;;;;;;;;;;5012366;28;20029;-43
2023/06/05 02:32:08;;;;;;;84.13;36.97;;;;;;;;;;5012117;28;20045;-47
2023/06/05 02:34:35;;;;;;;78.10;36.15;;;;;;;;;;5012119;28;20495;-43
2023/06/05 02:37:02;;;;;;;77.13;34.17;;;;;;;;;;5009525;28;20058;-44
2023/06/05 02:39:32;;;;;;;79.50;35.20;;;;;;;;;;5003674;28;20026;-43
2023/06/05 02:41:59;;;;;;;74.28;35.22;;;;;;;;;;5002029;28;20037;-43
2023/06/05 02:44:26;;;;;;;72.80;33.47;;;;;;;;;;5003099;28;20492;-45
2023/06/05 02:46:53;;;;;;;81.25;34.45;;;;;;;;;;5001338;28;20049;-42
2023/06/05 02:49:20;;;;;;;67.15;33.85;;;;;;;;;;5002027;28;20476;-43
2023/06/05 02:51:47;;;;;;;70.45;34.08;;;;;;;;;;4992991;28;20037;-44
2023/06/05 02:54:14;;;;;;;69.97;34.08;;;;;;;;;;4992767;28;20109;-44
2023/06/05 02:56:43;;;;;;;69.05;33.75;;;;;;;;;;4992779;28;20064;-43
2023/06/05 02:59:10;;;;;;;68.13;32.70;;;;;;;;;;4992792;28;20547;-42
2023/06/05 03:01:38;;;;;;;72.00;32.72;;;;;;;;;;4992804;28;20102;-43
2023/06/05 03:04:06;;;;;;;71.70;32.55;;;;;;;;;;4992750;28;20038;-44
2023/06/05 03:06:35;;;;;;;68.57;31.80;;;;;;;;;;4992322;28;20034;-42
2023/06/05 03:09:02;;;;;;;67.72;32.17;;;;;;;;;;4992551;28;20026;-43
2023/06/05 03:11:29;;;;;;;65.22;32.35;;;;;;;;;;4992592;28;20378;-42
2023/06/05 03:13:56;;;;;;;61.97;30.60;;;;;;;;;;4992426;28;20086;-45
2023/06/05 03:16:33;;;;;;;63.50;31.67;;;;;;;;;;4992426;28;20037;-42
2023/06/05 03:19:00;;;;;;;60.97;30.27;;;;;;;;;;4992437;28;20030;-43
2023/06/05 03:21:28;;;;;;;62.55;30.33;;;;;;;;;;4992210;28;20061;-44
2023/06/05 03:23:55;;;;;;;65.35;31.75;;;;;;;;;;4992368;28;20030;-42
2023/06/05 03:26:22;;;;;;;55.25;29.55;;;;;;;;;;4992224;28;20112;-42
2023/06/05 03:28:49;;;;;;;55.38;29.23;;;;;;;;;;4992374;28;20026;-43
2023/06/05 03:31:17;;;;;;;57.55;29.40;;;;;;;;;;4992310;28;20496;-41
2023/06/05 03:33:44;;;;;;;59.88;29.35;;;;;;;;;;4991835;28;20050;-47
2023/06/05 03:36:11;;;;;;;53.70;28.63;;;;;;;;;;4992214;28;20034;-43
2023/06/05 03:38:38;;;;;;;53.30;28.65;;;;;;;;;;4992292;28;20041;-45
2023/06/05 03:41:05;;;;;;;54.15;28.50;;;;;;;;;;4992200;28;20066;-42
2023/06/05 03:43:32;;;;;;;53.72;27.90;;;;;;;;;;4992296;28;20038;-44
2023/06/05 03:45:59;;;;;;;58.13;28.95;;;;;;;;;;4992094;28;20065;-42
2023/06/05 03:48:26;;;;;;;53.00;27.77;;;;;;;;;;4992253;28;20030;-43
2023/06/05 03:50:55;;;;;;;58.65;29.38;;;;;;;;;;4991953;28;20038;-45
2023/06/05 03:53:23;;;;;;;56.80;28.73;;;;;;;;;;4992126;28;20035;-43
2023/06/05 03:55:52;;;;;;;53.10;27.55;;;;;;;;;;4992081;28;20049;-45
2023/06/05 03:58:20;;;;;;;49.03;26.60;;;;;;;;;;4991971;28;20040;-43
2023/06/05 04:00:52;;;;;;;50.70;26.95;;;;;;;;;;4991986;28;20488;-45
2023/06/05 04:03:20;;;;;;;57.17;29.25;;;;;;;;;;4992025;28;20046;-45
2023/06/05 04:05:47;;;;;;;47.08;26.42;;;;;;;;;;4991791;28;20043;-45
2023/06/05 04:08:14;;;;;;;48.08;26.80;;;;;;;;;;4992013;28;20034;-44
2023/06/05 04:10:42;;;;;;;54.08;27.50;;;;;;;;;;4992005;28;20061;-43
2023/06/05 04:13:09;;;;;;;50.08;25.88;;;;;;;;;;4992072;28;20465;-43
2023/06/05 04:15:36;;;;;;;49.13;26.08;;;;;;;;;;4991908;28;20503;-43
2023/06/05 04:18:04;;;;;;;50.65;25.77;;;;;;;;;;4991763;28;20034;-43
2023/06/05 04:20:31;;;;;;;51.63;27.17;;;;;;;;;;4991799;28;20488;-44
2023/06/05 04:22:58;;;;;;;46.90;25.85;;;;;;;;;;4991855;28;20403;-43
2023/06/05 04:25:28;;;;;;;45.33;24.55;;;;;;;;;;4991638;28;20547;-43
2023/06/05 04:27:57;;;;;;;49.60;26.77;;;;;;;;;;4991667;28;20149;-43
2023/06/05 04:30:24;;;;;;;47.60;25.52;;;;;;;;;;4991708;28;20467;-43
2023/06/05 04:32:55;;;;;;;47.30;25.17;;;;;;;;;;4991454;28;20081;-42
2023/06/05 04:35:22;;;;;;;47.25;24.10;;;;;;;;;;4991707;28;20054;-47
2023/06/05 04:37:50;;;;;;;50.22;25.80;;;;;;;;;;4991787;28;20046;-47
2023/06/05 04:40:18;;;;;;;42.50;24.33;;;;;;;;;;4991734;28;20030;-42
2023/06/05 04:42:45;;;;;;;41.20;23.98;;;;;;;;;;4991775;28;20030;-44
2023/06/05 04:45:12;;;;;;;44.55;23.77;;;;;;;;;;4991731;28;20034;-44
2023/06/05 04:47:40;;;;;;;40.90;24.15;;;;;;;;;;4995008;28;20046;-43
2023/06/05 04:50:07;;;;;;;44.83;24.48;;;;;;;;;;4995077;28;20030;-42
2023/06/05 04:52:39;;;;;;;40.08;23.33;;;;;;;;;;4995150;28;20026;-43
2023/06/05 04:55:07;;;;;;;40.75;23.58;;;;;;;;;;4994885;28;20172;-43
2023/06/05 04:57:34;;;;;;;37.75;22.92;;;;;;;;;;4995155;28;20057;-45
2023/06/05 05:00:07;;;;;;;41.35;23.20;;;;;;;;;;4995021;28;20057;-44
2023/06/05 05:02:34;;;;;;;42.88;23.77;;;;;;;;;;4995076;28;20374;-44
2023/06/05 05:05:01;;;;;;;38.60;22.05;;;;;;;;;;4994696;28;20034;-44
2023/06/05 05:07:28;;;;;;;41.33;23.30;;;;;;;;;;4994825;28;20045;-43
2023/06/05 05:09:55;;;;;;;40.80;22.50;;;;;;;;;;4994866;28;20026;-42
2023/06/05 05:12:22;;;;;;;41.33;22.13;;;;;;;;;;4994765;28;20054;-42
2023/06/05 05:14:49;;;;;;;38.08;21.33;;;;;;;;;;4994460;28;20049;-43
2023/06/05 05:17:19;;;;;;;42.72;22.40;;;;;;;;;;4994820;28;20392;-43
2023/06/05 05:19:46;;;;;;;37.28;21.55;;;;;;;;;;4994463;28;20105;-44
2023/06/05 05:22:13;;;;;;;40.50;22.85;;;;;;;;;;4994706;28;20026;-45
2023/06/05 05:24:40;;;;;;;41.45;22.67;;;;;;;;;;4994450;28;20105;-44
2023/06/05 05:27:08;;;;;;;41.25;22.75;;;;;;;;;;4994543;28;20128;-45
2023/06/05 05:29:35;;;;;;;37.10;21.77;;;;;;;;;;4994385;28;20038;-43
2023/06/05 05:32:02;;;;;;;37.63;22.40;;;;;;;;;;4994210;28;20034;-43
2023/06/05 05:34:29;;;;;;;37.35;20.80;;;;;;;;;;4994289;28;20404;-43
2023/06/05 05:36:56;;;;;;;36.63;20.73;;;;;;;;;;4994340;28;20528;-43
2023/06/05 05:39:23;;;;;;;34.08;20.23;;;;;;;;;;4994123;28;20388;-43
2023/06/05 05:41:50;;;;;;;34.67;20.23;;;;;;;;;;4994287;28;20031;-43
2023/06/05 05:44:18;;;;;;;39.92;20.80;;;;;;;;;;4994239;28;20110;-43
2023/06/05 05:46:49;;;;;;;34.80;19.65;;;;;;;;;;4993953;28;20213;-42
2023/06/05 05:49:16;;;;;;;34.78;20.98;;;;;;;;;;4994074;28;20042;-44
2023/06/05 05:51:43;;;;;;;32.25;19.08;;;;;;;;;;4994069;28;20073;-44
2023/06/05 05:54:10;;;;;;;34.60;19.67;;;;;;;;;;4994057;28;20096;-43
2023/06/05 05:56:37;;;;;;;31.05;18.13;;;;;;;;;;4993620;28;20034;-43
2023/06/05 05:59:05;;;;;;;30.92;18.40;;;;;;;;;;4993930;28;20366;-48
2023/06/05 06:01:32;;;;;;;33.17;19.13;;;;;;;;;;5007000;28;20490;-42
2023/06/05 06:03:59;;;;;;;30.02;18.45;;;;;;;;;;5033138;28;20035;-43
2023/06/05 06:06:26;;;;;;;30.50;17.58;;;;;;;;;;5033002;28;20038;-45
2023/06/05 06:08:53;;;;;;;29.52;17.27;;;;;;;;;;5033056;28;20037;-42
2023/06/05 06:11:20;;;;;;;30.45;18.05;;;;;;;;;;5032994;28;20025;-43
2023/06/05 06:13:48;;;;;;;27.80;17.67;;;;;;;;;;5032951;28;20025;-44
2023/06/05 06:16:15;;;;;;;29.20;17.08;;;;;;;;;;5032715;28;20045;-43
2023/06/05 06:18:42;;;;;;;27.40;16.27;;;;;;;;;;5032776;28;20029;-45
2023/06/05 06:21:09;;;;;;;30.77;17.48;;;;;;;;;;5032577;28;20395;-43
2023/06/05 06:23:36;;;;;;;30.25;16.60;;;;;;;;;;5032848;28;20029;-44
2023/06/05 06:26:06;;;;;;;26.55;15.82;;;;;;;;;;5032467;28;20041;-44
2023/06/05 06:28:33;;;;;;;28.13;17.00;;;;;;;;;;5032543;28;20037;-45
2023/06/05 06:31:00;;;;;;;26.63;15.68;;;;;;;;;;5032648;28;20040;-44
2023/06/05 06:33:29;;;;;;;24.42;15.23;;;;;;;;;;5032402;28;20053;-46
2023/06/05 06:35:58;;;;;;;24.80;15.18;;;;;;;;;;5032472;28;20043;-44
2023/06/05 06:38:29;;;;;;;26.48;15.48;;;;;;;;;;5032407;28;20116;-46
2023/06/05 06:41:00;;;;;;;22.45;14.48;;;;;;;;;;5032408;28;20171;-44
2023/06/05 06:43:27;;;;;;;25.10;14.50;;;;;;;;;;5032424;28;20392;-44
2023/06/05 06:45:54;;;;;;;23.95;14.38;;;;;;;;;;5032258;28;20140;-42
2023/06/05 06:48:21;;;;;;;26.58;14.40;;;;;;;;;;5032341;28;20021;-42
2023/06/05 06:50:49;;;;;;;23.00;14.07;;;;;;;;;;5032353;28;20036;-43
2023/06/05 06:53:15;;;;;;;24.67;14.75;;;;;;;;;;5032245;28;20029;-43
2023/06/05 06:55:43;;;;;;;23.42;14.50;;;;;;;;;;5032133;28;20037;-44
2023/06/05 06:58:10;;;;;;;25.02;14.77;;;;;;;;;;5032218;28;20131;-43
2023/06/05 07:00:37;;;;;;;24.67;13.80;;;;;;;;;;5014387;28;20487;-43
2023/06/05 07:03:04;;;;;;;22.20;13.82;;;;;;;;;;5032072;28;20419;-47
2023/06/05 07:05:31;;;;;;;22.83;13.32;;;;;;;;;;5031864;28;20112;-42
2023/06/05 07:08:00;;;;;;;24.55;14.60;;;;;;;;;;5031684;28;20042;-42
2023/06/05 07:10:30;;;;;;;20.00;12.98;;;;;;;;;;5031715;28;20033;-42
2023/06/05 07:12:57;;;;;;;22.55;12.77;;;;;;;;;;5031972;28;20028;-43
2023/06/05 07:15:24;;;;;;;19.83;12.95;;;;;;;;;;5031873;28;20459;-44
2023/06/05 07:17:51;;;;;;;19.45;13.10;;;;;;;;;;5031897;28;20037;-43
2023/06/05 07:20:18;;;;;;;18.90;12.30;;;;;;;;;;5031951;28;20491;-43
2023/06/05 07:22:45;;;;;;;21.45;12.80;;;;;;;;;;5031879;28;20056;-42
2023/06/05 07:25:15;;;;;;;22.10;13.10;;;;;;;;;;5031723;28;20084;-43
2023/06/05 07:27:44;;;;;;;19.92;12.35;;;;;;;;;;5031505;28;20047;-44
2023/06/05 07:30:12;;;;;;;17.23;11.68;;;;;;;;;;5031696;28;20022;-42
2023/06/05 07:32:40;;;;;;;23.83;13.48;;;;;;;;;;5031355;28;20119;-43
2023/06/05 07:35:07;;;;;;;17.90;12.07;;;;;;;;;;5031406;28;20068;-42
2023/06/05 07:37:34;;;;;;;21.92;11.73;;;;;;;;;;5031599;28;20099;-44
2023/06/05 07:40:02;;;;;;;19.20;12.10;;;;;;;;;;5031582;28;20021;-42
2023/06/05 07:42:29;;;;;;;17.67;11.73;;;;;;;;;;5031395;28;20518;-43
2023/06/05 07:44:56;;;;;;;19.70;12.18;;;;;;;;;;5031318;28;20033;-43
2023/06/05 07:47:23;;;;;;;18.05;10.93;;;;;;;;;;5013632;28;20033;-43
2023/06/05 07:49:59;;;;;;;18.58;11.45;;;;;;;;;;5031471;28;20368;-43
2023/06/05 07:52:27;;;;;;;18.73;11.00;;;;;;;;;;5031504;28;20029;-44
2023/06/05 07:54:54;;;;;;;17.83;11.00;;;;;;;;;;5031248;28;20025;-43
2023/06/05 07:57:23;;;;;;;16.83;10.60;;;;;;;;;;5031396;28;20067;-43
2023/06/05 07:59:54;;;;;;;18.58;11.05;;;;;;;;;;5031566;28;20037;-43
2023/06/05 08:02:23;;;;;;;19.70;11.63;;;;;;;;;;5031393;28;20037;-45
2023/06/05 08:04:50;;;;;;;17.63;10.43;;;;;;;;;;5031291;28;20029;-43
2023/06/05 08:07:17;;;;;;;15.73;9.48;;;;;;;;;;5031121;28;20045;-45
2023/06/05 08:09:44;;;;;;;15.00;9.88;;;;;;;;;;5031311;28;20030;-42
2023/06/05 08:12:11;;;;;;;16.65;10.95;;;;;;;;;;5031377;28;20030;-47
2023/06/05 08:14:38;;;;;;;13.15;9.23;;;;;;;;;;5031213;28;20045;-43
2023/06/05 08:17:05;;;;;;;15.05;10.18;;;;;;;;;;5031355;28;20083;-44
2023/06/05 08:19:32;;;;;;;15.82;10.52;;;;;;;;;;5031118;28;20026;-45
2023/06/05 08:21:59;;;;;;;15.63;9.57;;;;;;;;;;5034154;28;20026;-43
2023/06/05 08:24:28;;;;;;;15.77;9.98;;;;;;;;;;5034990;28;20034;-44
2023/06/05 08:26:55;;;;;;;15.98;9.75;;;;;;;;;;5034817;28;20088;-43
2023/06/05 08:29:22;;;;;;;18.73;10.15;;;;;;;;;;5034743;28;20450;-42
2023/06/05 08:31:49;;;;;;;14.05;9.27;;;;;;;;;;5034676;28;20036;-46
2023/06/05 08:34:16;;;;;;;15.90;9.45;;;;;;;;;;5034724;28;20033;-43
2023/06/05 08:36:44;;;;;;;15.25;9.48;;;;;;;;;;5034786;28;20022;-44
2023/06/05 08:39:12;;;;;;;14.90;9.18;;;;;;;;;;5034618;28;20034;-48
2023/06/05 08:41:40;;;;;;;15.95;9.68;;;;;;;;;;5034583;28;20480;-43
2023/06/05 08:44:07;;;;;;;13.10;8.48;;;;;;;;;;5034461;28;20427;-44
2023/06/05 08:46:37;;;;;;;13.48;8.80;;;;;;;;;;5034530;28;20045;-43
2023/06/05 08:49:09;;;;;;;12.82;8.95;;;;;;;;;;5034633;28;20032;-44
2023/06/05 08:51:36;;;;;;;16.65;9.23;;;;;;;;;;5034504;28;20383;-42
2023/06/05 08:54:04;;;;;;;14.25;8.60;;;;;;;;;;5034494;28;20034;-43
2023/06/05 08:56:31;;;;;;;14.32;8.32;;;;;;;;;;5034292;28;20495;-44
2023/06/05 08:58:59;;;;;;;13.93;8.55;;;;;;;;;;5034411;28;20076;-43
2023/06/05 09:01:26;;;;;;;11.52;7.93;;;;;;;;;;5034286;28;20029;-45
2023/06/05 09:03:53;;;;;;;11.15;7.70;;;;;;;;;;5034281;28;20029;-44
2023/06/05 09:06:20;;;;;;;15.63;8.88;;;;;;;;;;5034116;28;20034;-42
2023/06/05 09:08:47;;;;;;;12.20;7.55;;;;;;;;;;5034201;28;20033;-44
2023/06/05 09:11:40;;;;;;;14.80;8.68;;;;;;;;;;5034243;28;20366;-43
2023/06/05 09:14:07;;;;;;;13.48;7.93;;;;;;;;;;5016694;28;20046;-43
2023/06/05 09:16:37;;;;;;;14.48;8.93;;;;;;;;;;5014372;28;20029;-44
2023/06/05 09:19:05;;;;;;;11.02;7.47;;;;;;;;;;5001755;28;20031;-43
2023/06/05 09:21:33;;;;;;;11.70;7.78;;;;;;;;;;4977134;28;20496;-45
2023/06/05 09:24:13;;;;;;;13.23;8.40;;;;;;;;;;4997850;28;20408;-43
2023/06/05 09:27:06;;;;;;;16.52;7.80;;;;;;;;;;5004191;28;20041;-42
2023/06/05 09:29:34;;;;;;;15.55;7.97;;;;;;;;;;5001924;28;20046;-44
2023/06/05 09:32:03;;;;;;;14.65;7.80;;;;;;;;;;5003427;28;20017;-45
2023/06/05 09:34:31;;;;;;;15.38;7.95;;;;;;;;;;4986428;28;20121;-43
2023/06/05 09:36:59;;;;;;;12.15;7.88;;;;;;;;;;5002505;28;20026;-43
2023/06/05 09:39:27;;;;;;;11.60;7.28;;;;;;;;;;4983184;28;20085;-43
2023/06/05 09:41:58;;;;;;;12.48;7.78;;;;;;;;;;4994091;28;20057;-43
2023/06/05 09:44:25;;;;;;;12.13;6.88;;;;;;;;;;4994160;28;20030;-43
2023/06/05 09:47:05;;;;;;;12.75;7.40;;;;;;;;;;4993859;28;20065;-43
2023/06/05 09:49:32;;;;;;;14.20;7.47;;;;;;;;;;5008697;28;20037;-43
2023/06/05 09:52:01;;;;;;;13.50;7.35;;;;;;;;;;5013340;28;20061;-42
2023/06/05 09:54:29;;;;;;;14.85;6.95;;;;;;;;;;5013585;28;20121;-43
2023/06/05 09:57:00;;;;;;;14.73;7.20;;;;;;;;;;5013581;28;20034;-43
2023/06/05 09:59:31;;;;;;;11.88;6.75;;;;;;;;;;5013557;28;20065;-43
2023/06/05 10:02:01;;;;;;;14.20;6.78;;;;;;;;;;5013455;28;20026;-43
2023/06/05 10:04:29;;;;;;;12.50;6.63;;;;;;;;;;5013162;28;20026;-43
2023/06/05 10:07:01;;;;;;;11.02;6.22;;;;;;;;;;5013409;28;20037;-43
2023/06/05 10:09:31;;;;;;;11.85;6.10;;;;;;;;;;5013258;28;20041;-44
2023/06/05 10:11:58;;;;;;;12.70;6.63;;;;;;;;;;5013191;28;20484;-44
2023/06/05 10:14:25;;;;;;;9.20;6.18;;;;;;;;;;5012734;28;20037;-43
2023/06/05 10:16:52;;;;;;;11.15;6.30;;;;;;;;;;5013130;28;20034;-44
2023/06/05 10:19:20;;;;;;;11.57;6.25;;;;;;;;;;5003025;28;20041;-46
2023/06/05 10:21:48;;;;;;;14.73;6.30;;;;;;;;;;5000995;28;20041;-42
2023/06/05 10:24:26;;;;;;;11.13;6.40;;;;;;;;;;5003403;28;20033;-42
2023/06/05 10:26:59;;;;;;;9.55;6.15;;;;;;;;;;5003539;28;20057;-44
2023/06/05 10:29:32;;;;;;;13.18;5.75;;;;;;;;;;5005324;28;20092;-45
2023/06/05 10:32:08;;;;;;;10.02;5.97;;;;;;;;;;5012141;28;20026;-47
2023/06/05 10:34:53;;;;;;;10.45;5.22;;;;;;;;;;5009863;28;20030;-45
2023/06/05 10:37:31;;;;;;;12.30;5.63;;;;;;;;;;4992869;28;20096;-43
2023/06/05 10:40:00;;;;;;;13.45;5.18;;;;;;;;;;5010594;28;20447;-46
2023/06/05 10:42:28;;;;;;;8.95;5.13;;;;;;;;;;5012045;28;20034;-43
2023/06/05 10:44:55;;;;;;;10.82;4.78;;;;;;;;;;5011232;28;20026;-45
2023/06/05 10:47:35;;;;;;;9.63;4.75;;;;;;;;;;5007716;28;20035;-41
2023/06/05 10:50:25;;;;;;;9.13;4.80;;;;;;;;;;4987142;28;20113;-41
2023/06/05 10:52:53;;;;;;;8.30;5.20;;;;;;;;;;4992997;28;20030;-41
2023/06/05 10:55:20;;;;;;;12.30;4.55;;;;;;;;;;4992410;28;20137;-41
2023/06/05 10:57:58;;;;;;;15.43;5.15;;;;;;;;;;4991258;28;20038;-44
2023/06/05 11:00:25;;;;;;;14.55;4.53;;;;;;;;;;4992606;28;20046;-41
2023/06/05 11:02:53;;;;;;;8.85;4.18;;;;;;;;;;4990617;28;20112;-41
2023/06/05 11:05:20;;;;;;;9.80;4.80;;;;;;;;;;4991861;28;20149;-46
2023/06/05 11:07:47;;;;;;;11.32;4.10;;;;;;;;;;4987731;28;20077;-42
2023/06/05 11:10:17;;;;;;;10.07;4.28;;;;;;;;;;4985653;28;20034;-42
2023/06/05 11:12:44;;;;;;;8.05;3.60;;;;;;;;;;4992299;28;20038;-48
2023/06/05 11:15:15;;;;;;;6.80;4.03;;;;;;;;;;4993223;28;20559;-42
2023/06/05 11:17:46;;;;;;;8.00;4.05;;;;;;;;;;4992104;28;20109;-41
2023/06/05 11:20:22;;;;;;;8.57;4.35;;;;;;;;;;4996576;28;20115;-39
2023/06/05 11:22:55;;;;;;;8.80;3.92;;;;;;;;;;5011958;28;20058;-40
2023/06/05 11:25:28;;;;;;;9.07;3.80;;;;;;;;;;5011633;28;20026;-41
2023/06/05 11:27:58;;;;;;;5.90;3.38;;;;;;;;;;5008944;28;20049;-40
2023/06/05 11:30:31;;;;;;;8.75;3.72;;;;;;;;;;5003467;28;20123;-40
2023/06/05 11:33:08;;;;;;;6.68;3.65;;;;;;;;;;5001492;28;20517;-40
2023/06/05 11:35:35;;;;;;;9.90;3.85;;;;;;;;;;5011307;28;20033;-40
2023/06/05 11:38:16;;;;;;;10.40;3.70;;;;;;;;;;5011389;28;20040;-41
2023/06/05 11:40:43;;;;;;;9.85;3.13;;;;;;;;;;5011814;28;20061;-41
2023/06/05 11:43:11;;;;;;;8.73;3.42;;;;;;;;;;5011681;28;20096;-40
2023/06/05 11:45:40;;;;;;;6.35;3.10;;;;;;;;;;5011658;28;20543;-42
2023/06/05 11:48:07;;;;;;;8.20;3.60;;;;;;;;;;5011713;28;20496;-41
2023/06/05 11:50:35;;;;;;;7.65;3.22;;;;;;;;;;4994137;28;20081;-48
2023/06/05 11:53:05;;;;;;;10.15;3.28;;;;;;;;;;5011741;28;20042;-40
2023/06/05 11:55:54;;;;;;;6.65;2.97;;;;;;;;;;5013965;28;20029;-40
2023/06/05 11:58:23;;;;;;;10.38;3.28;;;;;;;;;;5009605;28;20046;-40
2023/06/05 12:00:51;;;;;;;8.55;2.83;;;;;;;;;;5015806;28;20169;-42
2023/06/05 12:03:18;;;;;;;5.80;3.05;;;;;;;;;;5015703;28;20022;-43
2023/06/05 12:05:46;;;;;;;8.80;3.13;;;;;;;;;;5015479;28;20030;-41
2023/06/05 12:08:25;;;;;;;8.02;3.10;;;;;;;;;;5009627;28;20416;-39
2023/06/05 12:10:53;;;;;;;6.85;3.40;;;;;;;;;;5015583;28;20026;-41
2023/06/05 12:13:20;;;;;;;6.15;3.38;;;;;;;;;;5008002;28;20033;-41
2023/06/05 12:16:00;;;;;;;6.85;3.10;;;;;;;;;;5010363;28;20038;-41
2023/06/05 12:18:33;;;;;;;11.88;2.70;;;;;;;;;;5015369;28;20072;-41
2023/06/05 12:21:01;;;;;;;6.57;2.58;;;;;;;;;;5012181;28;20058;-40
2023/06/05 12:23:32;;;;;;;12.85;3.10;;;;;;;;;;5007840;28;20054;-42
2023/06/05 12:26:01;;;;;;;9.60;2.95;;;;;;;;;;4999374;28;20030;-43
2023/06/05 12:28:28;;;;;;;9.45;2.92;;;;;;;;;;5014910;28;20050;-45
2023/06/05 12:30:55;;;;;;;18.13;3.20;;;;;;;;;;5014789;28;20044;-43
2023/06/05 12:33:26;;;;;;;7.40;2.72;;;;;;;;;;5014879;28;20046;-42
2023/06/05 12:36:06;;;;;;;13.23;2.70;;;;;;;;;;4997159;28;20468;-42
2023/06/05 12:38:40;;;;;;;12.88;3.03;;;;;;;;;;5015010;28;20040;-45
2023/06/05 12:41:11;;;;;;;6.80;2.80;;;;;;;;;;5014878;28;20034;-41
2023/06/05 12:43:38;;;;;;;9.05;2.67;;;;;;;;;;5015025;28;20037;-39
2023/06/05 12:46:11;;;;;;;10.02;2.88;;;;;;;;;;4997051;28;20501;-40
2023/06/05 12:48:38;;;;;;;10.32;2.78;;;;;;;;;;5014717;28;20045;-40
2023/06/05 12:51:05;;;;;;;6.40;2.20;;;;;;;;;;5014902;28;20037;-41
2023/06/05 12:53:32;;;;;;;7.93;2.70;;;;;;;;;;5014812;28;20033;-41
2023/06/05 12:56:00;;;;;;;7.55;2.40;;;;;;;;;;5014690;28;20510;-40
2023/06/05 12:58:26;;;;;;;8.07;2.60;;;;;;;;;;5014734;28;20570;-40
2023/06/05 13:00:53;;;;;;;8.00;2.20;;;;;;;;;;5014646;28;20487;-43
2023/06/05 13:03:22;;;;;;;6.47;2.65;;;;;;;;;;5014485;28;20447;-42
2023/06/05 13:05:49;;;;;;;7.93;2.33;;;;;;;;;;5013972;28;20040;-39
2023/06/05 13:08:16;;;;;;;7.43;2.50;;;;;;;;;;5014038;28;20021;-41
2023/06/05 13:10:43;;;;;;;7.88;2.40;;;;;;;;;;5014525;28;20108;-40
2023/06/05 13:13:10;;;;;;;6.32;2.10;;;;;;;;;;5014399;28;20033;-41
2023/06/05 13:15:37;;;;;;;7.75;2.28;;;;;;;;;;5014355;28;20034;-43
2023/06/05 13:18:04;;;;;;;4.85;2.10;;;;;;;;;;5014431;28;20112;-42
2023/06/05 13:20:33;;;;;;;4.65;1.77;;;;;;;;;;5014378;28;20026;-39
2023/06/05 13:23:00;;;;;;;6.07;1.95;;;;;;;;;;5014083;28;20026;-42
2023/06/05 13:25:27;;;;;;;5.13;1.90;;;;;;;;;;5014160;28;20101;-39
2023/06/05 13:27:54;;;;;;;7.10;2.15;;;;;;;;;;5014110;28;20034;-41
2023/06/05 13:30:21;;;;;;;4.90;2.10;;;;;;;;;;5014194;28;20029;-43
2023/06/05 13:32:50;;;;;;;5.32;2.03;;;;;;;;;;5013955;28;20046;-40
2023/06/05 13:35:17;;;;;;;5.07;1.70;;;;;;;;;;5014166;28;20484;-39
2023/06/05 13:37:44;;;;;;;8.15;2.35;;;;;;;;;;5013806;28;20377;-40
2023/06/05 13:40:12;;;;;;;8.73;1.90;;;;;;;;;;5013934;28;20473;-40
2023/06/05 13:42:39;;;;;;;8.70;1.98;;;;;;;;;;5013895;28;20099;-40
2023/06/05 13:45:06;;;;;;;7.10;1.95;;;;;;;;;;5013659;28;20026;-39
2023/06/05 13:47:33;;;;;;;6.60;2.00;;;;;;;;;;5013684;28;20041;-41
2023/06/05 13:50:00;;;;;;;8.38;2.00;;;;;;;;;;5013685;28;20038;-40
2023/06/05 13:52:27;;;;;;;5.40;1.75;;;;;;;;;;5013706;28;20388;-39
2023/06/05 13:54:54;;;;;;;3.88;1.45;;;;;;;;;;5013487;28;20436;-40
2023/06/05 13:57:21;;;;;;;8.35;1.83;;;;;;;;;;5013625;28;20030;-40
2023/06/05 13:59:48;;;;;;;7.32;1.40;;;;;;;;;;5013513;28;20036;-42
2023/06/05 14:02:15;;;;;;;4.93;1.80;;;;;;;;;;5013440;28;20045;-41
2023/06/05 14:04:42;;;;;;;9.45;2.13;;;;;;;;;;5013337;28;20033;-41
2023/06/05 14:07:09;;;;;;;4.78;1.45;;;;;;;;;;5013389;28;20034;-40
2023/06/05 14:09:36;;;;;;;5.45;1.45;;;;;;;;;;5013417;28;20030;-40
2023/06/05 14:12:03;;;;;;;5.07;1.38;;;;;;;;;;5013359;28;20022;-42
2023/06/05 14:14:31;;;;;;;3.78;1.40;;;;;;;;;;5013027;28;20037;-40
2023/06/05 14:16:58;;;;;;;6.32;1.50;;;;;;;;;;5013328;28;20033;-41
2023/06/05 14:19:25;;;;;;;6.47;1.40;;;;;;;;;;5013179;28;20113;-41
2023/06/05 14:21:52;;;;;;;4.53;1.30;;;;;;;;;;5013179;28;20052;-42
2023/06/05 14:24:19;;;;;;;4.35;1.38;;;;;;;;;;5013101;28;20034;-39
2023/06/05 14:26:46;;;;;;;2.65;1.20;;;;;;;;;;5012804;28;20038;-40
2023/06/05 14:29:13;;;;;;;4.72;1.40;;;;;;;;;;5013000;28;20034;-40
2023/06/05 14:31:40;;;;;;;4.78;1.55;;;;;;;;;;5012998;28;20026;-40